Aviation Digital Data Service (ADDS)

Output produced by METARs form (2328 UTC 20 January 2019)
found at http://www.aviationweather.gov/metar/data/
 
Forecast for: ZPPP (KUNMING/WUJIABA , CN)
Text: TAF ZPPP 201903Z 2100/2124 04004MPS 4000 BR SCT003 OVC020 TX06/2108Z TN00/2123Z
Forecast period: 0000 UTC 21 January 2019 to 0000 UTC 22 January 2019
Forecast type: FROM: standard forecast or significant change
Winds: from the NE (40 degrees) at 9 MPH (8 knots; 4.1 m/s)
Visibility: 2.49 miles (4.01 km)
Ceiling: 2000 feet AGL
Clouds: scattered clouds at 300 feet AGL
overcast cloud deck at 2000 feet AGL
Weather: BR  (mist)